sensor_id;sensor_type;location;lat;lon;timestamp;P1;durP1;ratioP1;P2;durP2;ratioP2
253;SDS011;590;48.772;8.846;2023-11-19T00:01:16;0.63;;;0.40;;
253;SDS011;590;48.772;8.846;2023-11-19T00:03:45;0.50;;;0.40;;
253;SDS011;590;48.772;8.846;2023-11-19T00:06:15;0.80;;;0.60;;
253;SDS011;590;48.772;8.846;2023-11-19T00:08:44;0.80;;;0.50;;
253;SDS011;590;48.772;8.846;2023-11-19T00:11:13;0.90;;;0.50;;
253;SDS011;590;48.772;8.846;2023-11-19T00:13:42;0.50;;;0.30;;
253;SDS011;590;48.772;8.846;2023-11-19T00:16:10;0.50;;;0.40;;
253;SDS011;590;48.772;8.846;2023-11-19T00:18:38;0.60;;;0.40;;
253;SDS011;590;48.772;8.846;2023-11-19T00:21:06;0.47;;;0.30;;
253;SDS011;590;48.772;8.846;2023-11-19T00:23:36;0.50;;;0.40;;
253;SDS011;590;48.772;8.846;2023-11-19T00:26:04;0.50;;;0.40;;
253;SDS011;590;48.772;8.846;2023-11-19T00:28:34;0.67;;;0.40;;
253;SDS011;590;48.772;8.846;2023-11-19T00:31:05;0.80;;;0.30;;
253;SDS011;590;48.772;8.846;2023-11-19T00:33:33;0.53;;;0.40;;
253;SDS011;590;48.772;8.846;2023-11-19T00:36:01;0.47;;;0.30;;
253;SDS011;590;48.772;8.846;2023-11-19T00:38:29;0.80;;;0.50;;
253;SDS011;590;48.772;8.846;2023-11-19T00:40:58;0.40;;;0.30;;
253;SDS011;590;48.772;8.846;2023-11-19T00:43:26;0.50;;;0.40;;
253;SDS011;590;48.772;8.846;2023-11-19T00:45:55;0.60;;;0.30;;
253;SDS011;590;48.772;8.846;2023-11-19T00:48:23;0.67;;;0.40;;
253;SDS011;590;48.772;8.846;2023-11-19T00:50:53;0.43;;;0.40;;
253;SDS011;590;48.772;8.846;2023-11-19T00:53:21;0.40;;;0.30;;
253;SDS011;590;48.772;8.846;2023-11-19T00:55:49;0.70;;;0.40;;
253;SDS011;590;48.772;8.846;2023-11-19T00:58:17;0.40;;;0.30;;
253;SDS011;590;48.772;8.846;2023-11-19T01:00:45;0.50;;;0.30;;
253;SDS011;590;48.772;8.846;2023-11-19T01:03:14;0.40;;;0.30;;
253;SDS011;590;48.772;8.846;2023-11-19T01:05:42;0.50;;;0.30;;
253;SDS011;590;48.772;8.846;2023-11-19T01:08:11;0.67;;;0.30;;
253;SDS011;590;48.772;8.846;2023-11-19T01:10:39;0.50;;;0.30;;
253;SDS011;590;48.772;8.846;2023-11-19T01:13:07;0.40;;;0.30;;
253;SDS011;590;48.772;8.846;2023-11-19T01:15:35;0.50;;;0.30;;
253;SDS011;590;48.772;8.846;2023-11-19T01:18:03;0.40;;;0.27;;
253;SDS011;590;48.772;8.846;2023-11-19T01:20:33;0.40;;;0.30;;
253;SDS011;590;48.772;8.846;2023-11-19T01:23:01;0.40;;;0.30;;
253;SDS011;590;48.772;8.846;2023-11-19T01:25:30;0.37;;;0.30;;
253;SDS011;590;48.772;8.846;2023-11-19T01:27:58;0.40;;;0.40;;
253;SDS011;590;48.772;8.846;2023-11-19T01:30:28;0.40;;;0.30;;
253;SDS011;590;48.772;8.846;2023-11-19T01:32:56;0.60;;;0.30;;
253;SDS011;590;48.772;8.846;2023-11-19T01:35:24;0.60;;;0.30;;
253;SDS011;590;48.772;8.846;2023-11-19T01:37:55;0.40;;;0.30;;
253;SDS011;590;48.772;8.846;2023-11-19T01:40:23;0.60;;;0.30;;
253;SDS011;590;48.772;8.846;2023-11-19T01:42:51;0.40;;;0.30;;
253;SDS011;590;48.772;8.846;2023-11-19T01:45:25;1.17;;;0.40;;
253;SDS011;590;48.772;8.846;2023-11-19T01:47:57;0.50;;;0.30;;
253;SDS011;590;48.772;8.846;2023-11-19T01:50:28;0.50;;;0.40;;
253;SDS011;590;48.772;8.846;2023-11-19T01:52:59;0.50;;;0.30;;
253;SDS011;590;48.772;8.846;2023-11-19T01:55:28;0.50;;;0.30;;
253;SDS011;590;48.772;8.846;2023-11-19T01:57:57;0.70;;;0.30;;
253;SDS011;590;48.772;8.846;2023-11-19T02:00:28;0.40;;;0.30;;
253;SDS011;590;48.772;8.846;2023-11-19T02:02:59;0.60;;;0.40;;
253;SDS011;590;48.772;8.846;2023-11-19T02:05:28;0.60;;;0.30;;
253;SDS011;590;48.772;8.846;2023-11-19T02:08:00;0.43;;;0.27;;
253;SDS011;590;48.772;8.846;2023-11-19T02:10:29;0.40;;;0.30;;
253;SDS011;590;48.772;8.846;2023-11-19T02:12:58;0.40;;;0.30;;
253;SDS011;590;48.772;8.846;2023-11-19T02:15:29;0.40;;;0.30;;
253;SDS011;590;48.772;8.846;2023-11-19T02:17:57;0.43;;;0.30;;
253;SDS011;590;48.772;8.846;2023-11-19T02:20:44;0.60;;;0.30;;
253;SDS011;590;48.772;8.846;2023-11-19T02:23:16;0.40;;;0.30;;
253;SDS011;590;48.772;8.846;2023-11-19T02:25:47;0.60;;;0.30;;
253;SDS011;590;48.772;8.846;2023-11-19T02:28:24;0.40;;;0.30;;
253;SDS011;590;48.772;8.846;2023-11-19T02:31:09;0.43;;;0.40;;
253;SDS011;590;48.772;8.846;2023-11-19T02:33:38;0.67;;;0.37;;
253;SDS011;590;48.772;8.846;2023-11-19T02:36:07;0.70;;;0.40;;
253;SDS011;590;48.772;8.846;2023-11-19T02:38:36;0.40;;;0.30;;
253;SDS011;590;48.772;8.846;2023-11-19T02:41:04;0.40;;;0.30;;
253;SDS011;590;48.772;8.846;2023-11-19T02:43:34;0.40;;;0.30;;
253;SDS011;590;48.772;8.846;2023-11-19T02:46:05;0.40;;;0.30;;
253;SDS011;590;48.772;8.846;2023-11-19T02:48:37;0.50;;;0.30;;
253;SDS011;590;48.772;8.846;2023-11-19T02:51:05;0.40;;;0.30;;
253;SDS011;590;48.772;8.846;2023-11-19T02:53:36;0.87;;;0.30;;
253;SDS011;590;48.772;8.846;2023-11-19T02:56:06;0.87;;;0.30;;
253;SDS011;590;48.772;8.846;2023-11-19T02:58:43;0.73;;;0.40;;
253;SDS011;590;48.772;8.846;2023-11-19T03:01:12;0.40;;;0.30;;
253;SDS011;590;48.772;8.846;2023-11-19T03:03:49;0.40;;;0.30;;
253;SDS011;590;48.772;8.846;2023-11-19T03:06:21;0.63;;;0.30;;
253;SDS011;590;48.772;8.846;2023-11-19T03:08:49;0.57;;;0.30;;
253;SDS011;590;48.772;8.846;2023-11-19T03:11:17;0.60;;;0.40;;
253;SDS011;590;48.772;8.846;2023-11-19T03:13:47;0.40;;;0.30;;
253;SDS011;590;48.772;8.846;2023-11-19T03:16:15;0.40;;;0.40;;
253;SDS011;590;48.772;8.846;2023-11-19T03:18:43;0.50;;;0.40;;
253;SDS011;590;48.772;8.846;2023-11-19T03:21:11;0.40;;;0.20;;
253;SDS011;590;48.772;8.846;2023-11-19T03:23:40;0.50;;;0.30;;
253;SDS011;590;48.772;8.846;2023-11-19T03:26:10;1.00;;;0.30;;
253;SDS011;590;48.772;8.846;2023-11-19T03:28:38;0.40;;;0.30;;
253;SDS011;590;48.772;8.846;2023-11-19T03:31:07;0.40;;;0.20;;
253;SDS011;590;48.772;8.846;2023-11-19T03:33:36;0.50;;;0.30;;
253;SDS011;590;48.772;8.846;2023-11-19T03:36:04;0.67;;;0.40;;
253;SDS011;590;48.772;8.846;2023-11-19T03:38:33;0.93;;;0.30;;
253;SDS011;590;48.772;8.846;2023-11-19T03:41:09;0.40;;;0.30;;
253;SDS011;590;48.772;8.846;2023-11-19T03:43:38;0.40;;;0.20;;
253;SDS011;590;48.772;8.846;2023-11-19T03:46:16;1.07;;;0.20;;
253;SDS011;590;48.772;8.846;2023-11-19T03:48:46;0.40;;;0.30;;
253;SDS011;590;48.772;8.846;2023-11-19T03:51:14;0.40;;;0.30;;
253;SDS011;590;48.772;8.846;2023-11-19T03:53:42;0.53;;;0.30;;
253;SDS011;590;48.772;8.846;2023-11-19T03:56:10;0.40;;;0.30;;
253;SDS011;590;48.772;8.846;2023-11-19T03:58:39;0.40;;;0.20;;
253;SDS011;590;48.772;8.846;2023-11-19T04:01:10;0.50;;;0.20;;
253;SDS011;590;48.772;8.846;2023-11-19T04:03:41;0.40;;;0.30;;
253;SDS011;590;48.772;8.846;2023-11-19T04:06:12;0.40;;;0.20;;
253;SDS011;590;48.772;8.846;2023-11-19T04:08:40;2.00;;;0.30;;
253;SDS011;590;48.772;8.846;2023-11-19T04:11:08;0.40;;;0.30;;
253;SDS011;590;48.772;8.846;2023-11-19T04:13:36;0.40;;;0.30;;
253;SDS011;590;48.772;8.846;2023-11-19T04:16:04;0.97;;;0.30;;
253;SDS011;590;48.772;8.846;2023-11-19T04:18:33;0.40;;;0.20;;
253;SDS011;590;48.772;8.846;2023-11-19T04:21:05;0.50;;;0.30;;
253;SDS011;590;48.772;8.846;2023-11-19T04:23:33;0.40;;;0.20;;
253;SDS011;590;48.772;8.846;2023-11-19T04:26:02;1.27;;;0.40;;
253;SDS011;590;48.772;8.846;2023-11-19T04:28:33;0.50;;;0.30;;
253;SDS011;590;48.772;8.846;2023-11-19T04:31:01;0.30;;;0.20;;
253;SDS011;590;48.772;8.846;2023-11-19T04:33:30;0.50;;;0.30;;
253;SDS011;590;48.772;8.846;2023-11-19T04:35:58;1.33;;;0.30;;
253;SDS011;590;48.772;8.846;2023-11-19T04:38:27;1.33;;;0.30;;
253;SDS011;590;48.772;8.846;2023-11-19T04:40:55;1.13;;;0.30;;
253;SDS011;590;48.772;8.846;2023-11-19T04:43:24;0.60;;;0.23;;
253;SDS011;590;48.772;8.846;2023-11-19T04:45:52;0.40;;;0.23;;
253;SDS011;590;48.772;8.846;2023-11-19T04:48:20;0.40;;;0.30;;
253;SDS011;590;48.772;8.846;2023-11-19T04:50:48;0.40;;;0.30;;
253;SDS011;590;48.772;8.846;2023-11-19T04:53:17;0.73;;;0.20;;
253;SDS011;590;48.772;8.846;2023-11-19T04:55:47;0.50;;;0.40;;
253;SDS011;590;48.772;8.846;2023-11-19T04:58:15;1.10;;;0.80;;
253;SDS011;590;48.772;8.846;2023-11-19T05:00:43;0.90;;;0.80;;
253;SDS011;590;48.772;8.846;2023-11-19T05:03:11;0.50;;;0.30;;
253;SDS011;590;48.772;8.846;2023-11-19T05:05:39;0.50;;;0.30;;
253;SDS011;590;48.772;8.846;2023-11-19T05:08:07;0.40;;;0.30;;
253;SDS011;590;48.772;8.846;2023-11-19T05:10:35;1.97;;;0.37;;
253;SDS011;590;48.772;8.846;2023-11-19T05:13:05;0.70;;;0.30;;
253;SDS011;590;48.772;8.846;2023-11-19T05:15:33;0.37;;;0.30;;
253;SDS011;590;48.772;8.846;2023-11-19T05:18:01;0.40;;;0.30;;
253;SDS011;590;48.772;8.846;2023-11-19T05:20:31;0.40;;;0.20;;
253;SDS011;590;48.772;8.846;2023-11-19T05:22:59;0.50;;;0.30;;
253;SDS011;590;48.772;8.846;2023-11-19T05:25:27;0.40;;;0.30;;
253;SDS011;590;48.772;8.846;2023-11-19T05:27:56;0.40;;;0.30;;
253;SDS011;590;48.772;8.846;2023-11-19T05:30:25;0.40;;;0.30;;
253;SDS011;590;48.772;8.846;2023-11-19T05:32:53;2.07;;;0.33;;
253;SDS011;590;48.772;8.846;2023-11-19T05:35:22;0.60;;;0.30;;
253;SDS011;590;48.772;8.846;2023-11-19T05:37:50;0.40;;;0.30;;
253;SDS011;590;48.772;8.846;2023-11-19T05:40:18;0.50;;;0.30;;
253;SDS011;590;48.772;8.846;2023-11-19T05:42:47;0.40;;;0.30;;
253;SDS011;590;48.772;8.846;2023-11-19T05:45:15;0.70;;;0.40;;
253;SDS011;590;48.772;8.846;2023-11-19T05:47:44;0.53;;;0.40;;
253;SDS011;590;48.772;8.846;2023-11-19T05:50:12;0.50;;;0.40;;
253;SDS011;590;48.772;8.846;2023-11-19T05:52:40;0.83;;;0.30;;
253;SDS011;590;48.772;8.846;2023-11-19T05:55:08;0.63;;;0.40;;
253;SDS011;590;48.772;8.846;2023-11-19T05:57:37;0.60;;;0.40;;
253;SDS011;590;48.772;8.846;2023-11-19T06:00:09;0.60;;;0.50;;
253;SDS011;590;48.772;8.846;2023-11-19T06:02:39;0.50;;;0.40;;
253;SDS011;590;48.772;8.846;2023-11-19T06:05:09;1.27;;;0.70;;
253;SDS011;590;48.772;8.846;2023-11-19T06:07:37;0.40;;;0.33;;
253;SDS011;590;48.772;8.846;2023-11-19T06:10:07;0.50;;;0.43;;
253;SDS011;590;48.772;8.846;2023-11-19T06:12:37;0.40;;;0.40;;
253;SDS011;590;48.772;8.846;2023-11-19T06:15:07;0.50;;;0.30;;
253;SDS011;590;48.772;8.846;2023-11-19T06:17:36;0.60;;;0.60;;
253;SDS011;590;48.772;8.846;2023-11-19T06:20:05;0.50;;;0.30;;
253;SDS011;590;48.772;8.846;2023-11-19T06:22:35;0.40;;;0.30;;
253;SDS011;590;48.772;8.846;2023-11-19T06:25:03;1.03;;;0.40;;
253;SDS011;590;48.772;8.846;2023-11-19T06:27:34;0.97;;;0.40;;
253;SDS011;590;48.772;8.846;2023-11-19T06:30:02;0.50;;;0.37;;
253;SDS011;590;48.772;8.846;2023-11-19T06:32:32;0.50;;;0.30;;
253;SDS011;590;48.772;8.846;2023-11-19T06:35:00;0.60;;;0.47;;
253;SDS011;590;48.772;8.846;2023-11-19T06:37:28;0.77;;;0.47;;
253;SDS011;590;48.772;8.846;2023-11-19T06:39:57;0.60;;;0.40;;
253;SDS011;590;48.772;8.846;2023-11-19T06:42:25;0.50;;;0.40;;
253;SDS011;590;48.772;8.846;2023-11-19T06:44:53;0.50;;;0.40;;
253;SDS011;590;48.772;8.846;2023-11-19T06:47:25;0.70;;;0.70;;
253;SDS011;590;48.772;8.846;2023-11-19T06:49:54;0.70;;;0.47;;
253;SDS011;590;48.772;8.846;2023-11-19T06:52:22;0.40;;;0.30;;
253;SDS011;590;48.772;8.846;2023-11-19T06:54:50;2.20;;;0.60;;
253;SDS011;590;48.772;8.846;2023-11-19T06:57:19;1.70;;;0.97;;
253;SDS011;590;48.772;8.846;2023-11-19T06:59:50;1.10;;;1.00;;
253;SDS011;590;48.772;8.846;2023-11-19T07:02:18;1.13;;;0.70;;
253;SDS011;590;48.772;8.846;2023-11-19T07:04:46;0.77;;;0.73;;
253;SDS011;590;48.772;8.846;2023-11-19T07:07:14;2.50;;;1.00;;
253;SDS011;590;48.772;8.846;2023-11-19T07:09:42;1.27;;;1.23;;
253;SDS011;590;48.772;8.846;2023-11-19T07:12:10;1.80;;;1.40;;
253;SDS011;590;48.772;8.846;2023-11-19T07:14:42;1.27;;;1.23;;
253;SDS011;590;48.772;8.846;2023-11-19T07:17:10;1.40;;;1.37;;
253;SDS011;590;48.772;8.846;2023-11-19T07:19:38;1.33;;;1.10;;
253;SDS011;590;48.772;8.846;2023-11-19T07:22:06;0.83;;;0.80;;
253;SDS011;590;48.772;8.846;2023-11-19T07:24:34;0.80;;;0.73;;
253;SDS011;590;48.772;8.846;2023-11-19T07:27:02;1.17;;;1.13;;
253;SDS011;590;48.772;8.846;2023-11-19T07:29:30;0.90;;;0.77;;
253;SDS011;590;48.772;8.846;2023-11-19T07:32:00;0.70;;;0.70;;
253;SDS011;590;48.772;8.846;2023-11-19T07:34:29;0.87;;;0.80;;
253;SDS011;590;48.772;8.846;2023-11-19T07:36:57;0.87;;;0.67;;
253;SDS011;590;48.772;8.846;2023-11-19T07:39:28;0.83;;;0.63;;
253;SDS011;590;48.772;8.846;2023-11-19T07:41:56;1.17;;;0.60;;
253;SDS011;590;48.772;8.846;2023-11-19T07:44:24;0.70;;;0.60;;
253;SDS011;590;48.772;8.846;2023-11-19T07:46:52;0.87;;;0.80;;
253;SDS011;590;48.772;8.846;2023-11-19T07:49:22;0.77;;;0.60;;
253;SDS011;590;48.772;8.846;2023-11-19T07:51:50;0.70;;;0.60;;
253;SDS011;590;48.772;8.846;2023-11-19T07:54:18;1.00;;;0.90;;
253;SDS011;590;48.772;8.846;2023-11-19T07:56:47;0.90;;;0.80;;
253;SDS011;590;48.772;8.846;2023-11-19T07:59:16;0.70;;;0.70;;
253;SDS011;590;48.772;8.846;2023-11-19T08:01:44;1.07;;;0.63;;
253;SDS011;590;48.772;8.846;2023-11-19T08:04:13;1.17;;;1.00;;
253;SDS011;590;48.772;8.846;2023-11-19T08:06:42;0.70;;;0.60;;
253;SDS011;590;48.772;8.846;2023-11-19T08:09:11;0.80;;;0.70;;
253;SDS011;590;48.772;8.846;2023-11-19T08:11:41;2.27;;;1.37;;
253;SDS011;590;48.772;8.846;2023-11-19T08:14:09;4.90;;;4.53;;
253;SDS011;590;48.772;8.846;2023-11-19T08:16:38;4.53;;;4.23;;
253;SDS011;590;48.772;8.846;2023-11-19T08:19:06;9.90;;;9.40;;
253;SDS011;590;48.772;8.846;2023-11-19T08:21:35;7.20;;;6.80;;
253;SDS011;590;48.772;8.846;2023-11-19T08:24:05;3.50;;;3.30;;
253;SDS011;590;48.772;8.846;2023-11-19T08:26:34;2.90;;;2.70;;
253;SDS011;590;48.772;8.846;2023-11-19T08:29:02;1.97;;;1.87;;
253;SDS011;590;48.772;8.846;2023-11-19T08:31:30;1.20;;;1.10;;
253;SDS011;590;48.772;8.846;2023-11-19T08:33:58;1.30;;;1.23;;
253;SDS011;590;48.772;8.846;2023-11-19T08:36:26;1.20;;;1.00;;
253;SDS011;590;48.772;8.846;2023-11-19T08:38:55;2.33;;;1.93;;
253;SDS011;590;48.772;8.846;2023-11-19T08:41:24;1.80;;;1.40;;
253;SDS011;590;48.772;8.846;2023-11-19T08:43:53;0.83;;;0.80;;
253;SDS011;590;48.772;8.846;2023-11-19T08:46:21;0.80;;;0.73;;
253;SDS011;590;48.772;8.846;2023-11-19T08:48:49;1.07;;;1.07;;
253;SDS011;590;48.772;8.846;2023-11-19T08:51:17;1.40;;;1.30;;
253;SDS011;590;48.772;8.846;2023-11-19T08:53:45;2.93;;;1.73;;
253;SDS011;590;48.772;8.846;2023-11-19T08:56:13;1.43;;;1.33;;
253;SDS011;590;48.772;8.846;2023-11-19T08:58:42;1.27;;;0.77;;
253;SDS011;590;48.772;8.846;2023-11-19T09:01:10;1.50;;;1.10;;
253;SDS011;590;48.772;8.846;2023-11-19T09:03:38;1.17;;;1.07;;
253;SDS011;590;48.772;8.846;2023-11-19T09:06:07;1.00;;;0.90;;
253;SDS011;590;48.772;8.846;2023-11-19T09:08:35;1.17;;;1.10;;
253;SDS011;590;48.772;8.846;2023-11-19T09:11:06;1.30;;;1.30;;
253;SDS011;590;48.772;8.846;2023-11-19T09:13:35;1.10;;;1.00;;
253;SDS011;590;48.772;8.846;2023-11-19T09:16:05;1.57;;;1.20;;
253;SDS011;590;48.772;8.846;2023-11-19T09:18:33;1.53;;;1.30;;
253;SDS011;590;48.772;8.846;2023-11-19T09:21:02;1.63;;;1.57;;
253;SDS011;590;48.772;8.846;2023-11-19T09:23:30;1.60;;;1.50;;
253;SDS011;590;48.772;8.846;2023-11-19T09:26:03;1.83;;;1.73;;
253;SDS011;590;48.772;8.846;2023-11-19T09:28:31;1.50;;;1.40;;
253;SDS011;590;48.772;8.846;2023-11-19T09:30:59;4.03;;;3.83;;
253;SDS011;590;48.772;8.846;2023-11-19T09:33:32;7.50;;;7.10;;
253;SDS011;590;48.772;8.846;2023-11-19T09:36:01;6.00;;;5.70;;
253;SDS011;590;48.772;8.846;2023-11-19T09:38:29;12.40;;;11.80;;
253;SDS011;590;48.772;8.846;2023-11-19T09:40:58;6.63;;;6.23;;
253;SDS011;590;48.772;8.846;2023-11-19T09:43:27;3.60;;;3.27;;
253;SDS011;590;48.772;8.846;2023-11-19T09:45:56;2.87;;;2.10;;
253;SDS011;590;48.772;8.846;2023-11-19T09:48:28;1.07;;;0.90;;
253;SDS011;590;48.772;8.846;2023-11-19T09:50:57;1.47;;;0.70;;
253;SDS011;590;48.772;8.846;2023-11-19T09:53:26;0.83;;;0.50;;
253;SDS011;590;48.772;8.846;2023-11-19T09:55:54;1.10;;;0.70;;
253;SDS011;590;48.772;8.846;2023-11-19T09:58:23;0.60;;;0.60;;
253;SDS011;590;48.772;8.846;2023-11-19T10:00:51;2.07;;;0.73;;
253;SDS011;590;48.772;8.846;2023-11-19T10:03:39;1.37;;;0.47;;
253;SDS011;590;48.772;8.846;2023-11-19T10:06:11;0.90;;;0.60;;
253;SDS011;590;48.772;8.846;2023-11-19T10:08:41;1.30;;;0.60;;
253;SDS011;590;48.772;8.846;2023-11-19T10:11:10;1.07;;;0.50;;
253;SDS011;590;48.772;8.846;2023-11-19T10:13:38;0.77;;;0.43;;
253;SDS011;590;48.772;8.846;2023-11-19T10:16:09;0.77;;;0.50;;
253;SDS011;590;48.772;8.846;2023-11-19T10:18:42;0.83;;;0.60;;
253;SDS011;590;48.772;8.846;2023-11-19T10:21:13;0.80;;;0.50;;
253;SDS011;590;48.772;8.846;2023-11-19T10:23:50;1.40;;;0.50;;
253;SDS011;590;48.772;8.846;2023-11-19T10:26:19;0.80;;;0.60;;
253;SDS011;590;48.772;8.846;2023-11-19T10:28:47;0.50;;;0.40;;
253;SDS011;590;48.772;8.846;2023-11-19T10:31:16;1.27;;;0.80;;
253;SDS011;590;48.772;8.846;2023-11-19T10:33:45;1.47;;;0.70;;
253;SDS011;590;48.772;8.846;2023-11-19T10:36:15;1.10;;;0.77;;
253;SDS011;590;48.772;8.846;2023-11-19T10:38:51;0.50;;;0.30;;
253;SDS011;590;48.772;8.846;2023-11-19T10:41:26;2.10;;;0.57;;
253;SDS011;590;48.772;8.846;2023-11-19T10:43:54;0.90;;;0.70;;
253;SDS011;590;48.772;8.846;2023-11-19T10:46:22;1.03;;;0.50;;
253;SDS011;590;48.772;8.846;2023-11-19T10:49:03;2.20;;;1.27;;
253;SDS011;590;48.772;8.846;2023-11-19T10:51:34;1.87;;;0.90;;
253;SDS011;590;48.772;8.846;2023-11-19T10:54:02;1.73;;;0.77;;
253;SDS011;590;48.772;8.846;2023-11-19T10:56:32;1.10;;;0.70;;
253;SDS011;590;48.772;8.846;2023-11-19T10:59:02;1.33;;;1.07;;
253;SDS011;590;48.772;8.846;2023-11-19T11:01:48;0.60;;;0.50;;
253;SDS011;590;48.772;8.846;2023-11-19T11:04:22;1.20;;;0.80;;
253;SDS011;590;48.772;8.846;2023-11-19T11:06:54;0.60;;;0.50;;
253;SDS011;590;48.772;8.846;2023-11-19T11:09:25;1.30;;;0.70;;
253;SDS011;590;48.772;8.846;2023-11-19T11:11:54;2.50;;;1.03;;
253;SDS011;590;48.772;8.846;2023-11-19T11:14:23;1.03;;;0.87;;
253;SDS011;590;48.772;8.846;2023-11-19T11:16:53;1.07;;;0.50;;
253;SDS011;590;48.772;8.846;2023-11-19T11:19:21;1.53;;;0.70;;
253;SDS011;590;48.772;8.846;2023-11-19T11:21:50;1.67;;;1.00;;
253;SDS011;590;48.772;8.846;2023-11-19T11:24:31;2.37;;;1.40;;
253;SDS011;590;48.772;8.846;2023-11-19T11:30:13;0.70;;;0.53;;
253;SDS011;590;48.772;8.846;2023-11-19T11:32:54;1.13;;;1.10;;
253;SDS011;590;48.772;8.846;2023-11-19T11:35:33;1.87;;;1.80;;
253;SDS011;590;48.772;8.846;2023-11-19T11:38:09;1.00;;;0.70;;
253;SDS011;590;48.772;8.846;2023-11-19T11:40:39;1.90;;;1.10;;
253;SDS011;590;48.772;8.846;2023-11-19T11:46:09;1.63;;;0.97;;
253;SDS011;590;48.772;8.846;2023-11-19T11:48:57;0.93;;;0.60;;
253;SDS011;590;48.772;8.846;2023-11-19T11:54:30;0.90;;;0.60;;
253;SDS011;590;48.772;8.846;2023-11-19T11:57:10;1.07;;;0.60;;
253;SDS011;590;48.772;8.846;2023-11-19T11:59:47;1.27;;;0.70;;
253;SDS011;590;48.772;8.846;2023-11-19T12:02:16;2.30;;;0.67;;
253;SDS011;590;48.772;8.846;2023-11-19T12:04:47;1.77;;;0.80;;
253;SDS011;590;48.772;8.846;2023-11-19T12:07:17;1.77;;;0.70;;
253;SDS011;590;48.772;8.846;2023-11-19T12:09:51;1.13;;;0.70;;
253;SDS011;590;48.772;8.846;2023-11-19T12:12:25;2.00;;;0.90;;
253;SDS011;590;48.772;8.846;2023-11-19T12:15:07;1.17;;;0.40;;
253;SDS011;590;48.772;8.846;2023-11-19T12:17:41;1.47;;;0.80;;
253;SDS011;590;48.772;8.846;2023-11-19T12:20:12;1.93;;;0.70;;
253;SDS011;590;48.772;8.846;2023-11-19T12:22:40;0.80;;;0.70;;
253;SDS011;590;48.772;8.846;2023-11-19T12:25:09;1.07;;;0.40;;
253;SDS011;590;48.772;8.846;2023-11-19T12:27:41;1.17;;;0.67;;
253;SDS011;590;48.772;8.846;2023-11-19T12:30:10;1.93;;;0.60;;
253;SDS011;590;48.772;8.846;2023-11-19T12:32:39;1.00;;;0.60;;
253;SDS011;590;48.772;8.846;2023-11-19T12:35:08;0.60;;;0.50;;
253;SDS011;590;48.772;8.846;2023-11-19T12:37:39;0.60;;;0.60;;
253;SDS011;590;48.772;8.846;2023-11-19T12:40:12;1.37;;;0.60;;
253;SDS011;590;48.772;8.846;2023-11-19T12:42:46;0.70;;;0.40;;
253;SDS011;590;48.772;8.846;2023-11-19T12:45:14;2.83;;;1.00;;
253;SDS011;590;48.772;8.846;2023-11-19T12:47:46;1.90;;;0.73;;
253;SDS011;590;48.772;8.846;2023-11-19T12:50:16;2.53;;;0.80;;
253;SDS011;590;48.772;8.846;2023-11-19T12:52:54;0.97;;;0.50;;
253;SDS011;590;48.772;8.846;2023-11-19T12:55:24;1.23;;;0.70;;
253;SDS011;590;48.772;8.846;2023-11-19T12:57:56;0.90;;;0.53;;
253;SDS011;590;48.772;8.846;2023-11-19T13:00:26;1.17;;;0.53;;
253;SDS011;590;48.772;8.846;2023-11-19T13:02:55;1.23;;;0.50;;
253;SDS011;590;48.772;8.846;2023-11-19T13:05:24;1.73;;;0.70;;
253;SDS011;590;48.772;8.846;2023-11-19T13:08:01;1.83;;;0.93;;
253;SDS011;590;48.772;8.846;2023-11-19T13:10:31;1.93;;;0.73;;
253;SDS011;590;48.772;8.846;2023-11-19T13:13:03;1.20;;;1.00;;
253;SDS011;590;48.772;8.846;2023-11-19T13:15:32;1.43;;;0.67;;
253;SDS011;590;48.772;8.846;2023-11-19T13:18:00;0.90;;;0.60;;
253;SDS011;590;48.772;8.846;2023-11-19T13:20:29;1.43;;;0.77;;
253;SDS011;590;48.772;8.846;2023-11-19T13:22:58;0.50;;;0.40;;
253;SDS011;590;48.772;8.846;2023-11-19T13:25:28;1.10;;;0.40;;
253;SDS011;590;48.772;8.846;2023-11-19T13:27:58;0.80;;;0.60;;
253;SDS011;590;48.772;8.846;2023-11-19T13:30:28;0.70;;;0.50;;
253;SDS011;590;48.772;8.846;2023-11-19T13:32:56;0.83;;;0.50;;
253;SDS011;590;48.772;8.846;2023-11-19T13:35:25;1.00;;;0.73;;
253;SDS011;590;48.772;8.846;2023-11-19T13:37:54;1.13;;;0.53;;
253;SDS011;590;48.772;8.846;2023-11-19T13:40:22;1.23;;;0.63;;
253;SDS011;590;48.772;8.846;2023-11-19T13:42:51;1.77;;;0.73;;
253;SDS011;590;48.772;8.846;2023-11-19T13:45:19;0.90;;;0.70;;
253;SDS011;590;48.772;8.846;2023-11-19T13:47:49;0.83;;;0.47;;
253;SDS011;590;48.772;8.846;2023-11-19T13:50:17;2.00;;;0.60;;
253;SDS011;590;48.772;8.846;2023-11-19T13:52:45;1.03;;;0.50;;
253;SDS011;590;48.772;8.846;2023-11-19T13:55:14;0.50;;;0.50;;
253;SDS011;590;48.772;8.846;2023-11-19T13:57:42;0.60;;;0.53;;
253;SDS011;590;48.772;8.846;2023-11-19T14:00:11;1.17;;;0.60;;
253;SDS011;590;48.772;8.846;2023-11-19T14:02:40;1.53;;;0.60;;
253;SDS011;590;48.772;8.846;2023-11-19T14:05:10;1.47;;;0.87;;
253;SDS011;590;48.772;8.846;2023-11-19T14:07:38;0.90;;;0.53;;
253;SDS011;590;48.772;8.846;2023-11-19T14:10:06;1.23;;;0.90;;
253;SDS011;590;48.772;8.846;2023-11-19T14:12:36;0.77;;;0.57;;
253;SDS011;590;48.772;8.846;2023-11-19T14:15:04;1.17;;;0.60;;
253;SDS011;590;48.772;8.846;2023-11-19T14:17:36;0.50;;;0.43;;
253;SDS011;590;48.772;8.846;2023-11-19T14:20:04;1.13;;;0.70;;
253;SDS011;590;48.772;8.846;2023-11-19T14:22:41;1.47;;;0.67;;
253;SDS011;590;48.772;8.846;2023-11-19T14:25:10;0.67;;;0.60;;
253;SDS011;590;48.772;8.846;2023-11-19T14:27:38;2.00;;;0.50;;
253;SDS011;590;48.772;8.846;2023-11-19T14:30:08;1.67;;;0.77;;
253;SDS011;590;48.772;8.846;2023-11-19T14:32:38;3.47;;;1.00;;
253;SDS011;590;48.772;8.846;2023-11-19T14:35:08;0.57;;;0.57;;
253;SDS011;590;48.772;8.846;2023-11-19T14:37:36;0.90;;;0.80;;
253;SDS011;590;48.772;8.846;2023-11-19T14:40:06;1.33;;;0.40;;
253;SDS011;590;48.772;8.846;2023-11-19T14:42:37;0.80;;;0.60;;
253;SDS011;590;48.772;8.846;2023-11-19T14:45:06;1.13;;;0.43;;
253;SDS011;590;48.772;8.846;2023-11-19T14:47:38;1.10;;;0.70;;
253;SDS011;590;48.772;8.846;2023-11-19T14:50:07;1.23;;;1.20;;
253;SDS011;590;48.772;8.846;2023-11-19T14:52:35;1.43;;;0.87;;
253;SDS011;590;48.772;8.846;2023-11-19T14:55:05;3.30;;;3.13;;
253;SDS011;590;48.772;8.846;2023-11-19T14:57:36;1.67;;;1.60;;
253;SDS011;590;48.772;8.846;2023-11-19T15:00:06;7.37;;;6.97;;
253;SDS011;590;48.772;8.846;2023-11-19T15:02:40;1.67;;;1.20;;
253;SDS011;590;48.772;8.846;2023-11-19T15:05:08;1.23;;;1.13;;
253;SDS011;590;48.772;8.846;2023-11-19T15:07:37;1.60;;;1.50;;
253;SDS011;590;48.772;8.846;2023-11-19T15:10:08;4.23;;;3.97;;
253;SDS011;590;48.772;8.846;2023-11-19T15:12:37;2.40;;;2.20;;
253;SDS011;590;48.772;8.846;2023-11-19T15:15:07;2.23;;;1.90;;
253;SDS011;590;48.772;8.846;2023-11-19T15:17:39;3.53;;;3.30;;
253;SDS011;590;48.772;8.846;2023-11-19T15:20:07;1.67;;;1.10;;
253;SDS011;590;48.772;8.846;2023-11-19T15:22:37;0.80;;;0.70;;
253;SDS011;590;48.772;8.846;2023-11-19T15:25:06;2.50;;;1.80;;
253;SDS011;590;48.772;8.846;2023-11-19T15:27:36;1.40;;;0.80;;
253;SDS011;590;48.772;8.846;2023-11-19T15:30:05;1.20;;;1.10;;
253;SDS011;590;48.772;8.846;2023-11-19T15:32:37;1.77;;;1.07;;
253;SDS011;590;48.772;8.846;2023-11-19T15:35:06;2.87;;;1.53;;
253;SDS011;590;48.772;8.846;2023-11-19T15:37:36;1.27;;;0.90;;
253;SDS011;590;48.772;8.846;2023-11-19T15:40:04;4.60;;;3.00;;
253;SDS011;590;48.772;8.846;2023-11-19T15:42:35;3.30;;;3.13;;
253;SDS011;590;48.772;8.846;2023-11-19T15:45:04;1.90;;;1.80;;
253;SDS011;590;48.772;8.846;2023-11-19T15:47:33;2.70;;;2.37;;
253;SDS011;590;48.772;8.846;2023-11-19T15:50:02;1.70;;;1.60;;
253;SDS011;590;48.772;8.846;2023-11-19T15:52:31;3.93;;;3.73;;
253;SDS011;590;48.772;8.846;2023-11-19T15:54:59;2.27;;;1.90;;
253;SDS011;590;48.772;8.846;2023-11-19T15:57:27;2.53;;;2.20;;
253;SDS011;590;48.772;8.846;2023-11-19T15:59:56;4.63;;;4.33;;
253;SDS011;590;48.772;8.846;2023-11-19T16:02:24;2.07;;;1.93;;
253;SDS011;590;48.772;8.846;2023-11-19T16:04:53;2.93;;;2.70;;
253;SDS011;590;48.772;8.846;2023-11-19T16:07:21;2.20;;;2.00;;
253;SDS011;590;48.772;8.846;2023-11-19T16:09:49;1.43;;;1.17;;